createdAt,value
2022-10-12T00:03:07.948Z,2.27
2022-10-12T00:07:09.498Z,2.28
2022-10-12T00:11:14.697Z,2.13
2022-10-12T00:15:16.594Z,2.15
2022-10-12T00:19:18.433Z,2.18
2022-10-12T00:23:20.032Z,2.19
2022-10-12T00:27:22.064Z,2.04
2022-10-12T00:31:24.605Z,2.08
2022-10-12T00:35:29.625Z,2.08
2022-10-12T00:39:31.279Z,2.10
2022-10-12T00:43:39.256Z,2.03
2022-10-12T00:47:51.601Z,1.93
2022-10-12T00:51:58.702Z,1.89
2022-10-12T00:56:04.749Z,1.90
2022-10-12T01:00:09.777Z,1.86
2022-10-12T01:04:11.618Z,1.80
2022-10-12T01:08:13.508Z,1.71
2022-10-12T01:12:16.181Z,1.76
2022-10-12T01:17:01.626Z,1.76
2022-10-12T01:21:20.949Z,1.69
2022-10-12T01:25:53.666Z,1.68
2022-10-12T01:30:07.260Z,1.70
2022-10-12T01:34:18.016Z,1.69
2022-10-12T01:38:44.675Z,1.57
2022-10-12T01:42:47.424Z,1.62
2022-10-12T01:46:49.795Z,1.63
2022-10-12T01:50:56.293Z,1.55
2022-10-12T01:55:19.619Z,1.58
2022-10-12T01:59:59.424Z,1.55
2022-10-12T02:04:10.185Z,1.51
2022-10-12T02:08:31.192Z,1.43
2022-10-12T02:12:34.562Z,1.39
2022-10-12T02:16:42.322Z,1.34
2022-10-12T02:20:48.824Z,1.35
2022-10-12T02:24:53.152Z,1.30
2022-10-12T02:28:55.269Z,1.27
2022-10-12T02:33:05.808Z,1.24
2022-10-12T02:37:12.288Z,1.17
2022-10-12T02:41:23.368Z,1.20
2022-10-12T02:45:25.819Z,1.17
2022-10-12T02:49:29.620Z,1.22
2022-10-12T02:53:31.360Z,1.22
2022-10-12T02:57:33.265Z,1.16
2022-10-12T03:01:34.925Z,1.16
2022-10-12T03:05:37.165Z,1.13
2022-10-12T03:09:38.838Z,1.20
2022-10-12T03:13:40.798Z,1.10
2022-10-12T03:17:42.735Z,1.03
2022-10-12T03:21:44.765Z,0.96
2022-10-12T03:25:46.415Z,0.87
2022-10-12T03:29:48.246Z,0.94
2022-10-12T03:33:49.867Z,0.91
2022-10-12T03:37:51.763Z,0.89
2022-10-12T03:41:53.532Z,0.93
2022-10-12T03:45:55.345Z,0.94
2022-10-12T03:49:57.004Z,0.92
2022-10-12T03:53:58.920Z,0.83
2022-10-12T03:58:00.704Z,0.79
2022-10-12T04:02:02.523Z,0.85
2022-10-12T04:06:04.755Z,0.84
2022-10-12T04:10:07.219Z,0.82
2022-10-12T04:14:08.897Z,0.75
2022-10-12T04:18:11.019Z,0.77
2022-10-12T04:22:12.736Z,0.80
2022-10-12T04:26:14.599Z,0.76
2022-10-12T04:30:16.367Z,0.82
2022-10-12T04:34:19.531Z,0.91
2022-10-12T04:38:21.165Z,0.84
2022-10-12T04:42:23.215Z,0.96
2022-10-12T04:46:24.913Z,0.84
2022-10-12T04:50:30.053Z,0.80
2022-10-12T04:54:32.874Z,0.81
2022-10-12T04:58:35.568Z,0.77
2022-10-12T05:02:37.264Z,0.93
2022-10-12T05:06:39.282Z,0.94
2022-10-12T05:10:40.922Z,1.03
2022-10-12T05:14:44.304Z,1.03
2022-10-12T05:18:46.205Z,1.03
2022-10-12T05:22:47.978Z,1.12
2022-10-12T05:26:49.842Z,1.17
2022-10-12T05:30:52.979Z,1.25
2022-10-12T05:34:55.249Z,1.37
2022-10-12T05:38:57.049Z,1.56
2022-10-12T05:42:58.774Z,1.70
2022-10-12T05:47:00.540Z,1.85
2022-10-12T05:51:02.330Z,2.04
2022-10-12T05:55:04.847Z,2.20
2022-10-12T05:59:06.507Z,2.24
2022-10-12T06:03:08.297Z,2.37
2022-10-12T06:07:10.144Z,2.57
2022-10-12T06:11:12.026Z,2.77
2022-10-12T06:15:13.825Z,2.94
2022-10-12T06:19:15.866Z,3.05
2022-10-12T06:23:18.066Z,3.32
2022-10-12T06:27:21.203Z,3.48
2022-10-12T06:31:23.306Z,3.73
2022-10-12T06:35:25.128Z,3.84
2022-10-12T06:39:26.903Z,3.97
2022-10-12T06:43:28.807Z,4.17
2022-10-12T06:47:30.466Z,4.40
2022-10-12T06:51:32.302Z,4.60
2022-10-12T06:55:34.156Z,4.80
2022-10-12T06:59:35.952Z,5.00
2022-10-12T07:03:37.681Z,5.25
2022-10-12T07:07:39.744Z,5.50
2022-10-12T07:11:41.427Z,5.71
2022-10-12T07:15:49.798Z,5.93
2022-10-12T07:19:51.460Z,6.16
2022-10-12T07:23:53.392Z,6.38
2022-10-12T07:27:55.027Z,6.58
2022-10-12T07:31:58.173Z,6.80
2022-10-12T07:36:21.231Z,7.08
2022-10-12T07:40:22.942Z,7.33
2022-10-12T07:44:24.781Z,7.59
2022-10-12T07:48:26.588Z,7.80
2022-10-12T07:52:28.416Z,8.09
2022-10-12T07:56:30.297Z,8.30
2022-10-12T08:00:32.623Z,8.59
2022-10-12T08:04:34.476Z,8.81
2022-10-12T08:08:36.367Z,9.18
2022-10-12T08:12:38.173Z,9.29
2022-10-12T08:16:39.924Z,9.43
2022-10-12T08:20:41.884Z,9.81
2022-10-12T08:24:43.825Z,10.02
2022-10-12T08:28:45.891Z,10.23
2022-10-12T08:32:47.794Z,10.35
2022-10-12T08:36:49.654Z,10.47
2022-10-12T08:40:58.290Z,10.72
2022-10-12T08:45:20.421Z,11.04
2022-10-12T08:49:25.697Z,11.25
2022-10-12T08:53:36.236Z,11.62
2022-10-12T08:57:37.958Z,11.72
2022-10-12T09:01:57.214Z,11.85
2022-10-12T09:06:11.941Z,12.06
2022-10-12T09:10:19.736Z,12.07
2022-10-12T09:14:26.438Z,12.27
2022-10-12T09:18:41.026Z,12.42
2022-10-12T09:22:47.981Z,12.54
2022-10-12T09:26:53.589Z,12.63
2022-10-12T09:31:06.434Z,12.71
2022-10-12T09:35:13.265Z,12.82
2022-10-12T09:39:25.676Z,13.05
2022-10-12T09:43:31.340Z,13.01
2022-10-12T09:47:33.887Z,13.12
2022-10-12T09:51:35.886Z,13.10
2022-10-12T09:55:37.836Z,13.03
2022-10-12T09:59:44.406Z,13.21
2022-10-12T10:03:48.904Z,13.32
2022-10-12T10:07:50.865Z,13.31
2022-10-12T10:11:52.703Z,13.53
2022-10-12T10:16:06.641Z,13.63
2022-10-12T10:20:26.291Z,13.53
2022-10-12T10:24:31.045Z,13.64
2022-10-12T10:28:57.499Z,13.76
2022-10-12T10:33:15.661Z,13.93
2022-10-12T10:37:22.801Z,13.99
2022-10-12T10:41:28.540Z,14.04
2022-10-12T10:45:42.292Z,14.16
2022-10-12T10:49:49.849Z,14.12
2022-10-12T10:53:51.673Z,14.05
2022-10-12T10:58:04.077Z,14.49
2022-10-12T11:02:24.999Z,13.96
2022-10-12T11:06:42.348Z,13.61
2022-10-12T11:10:50.272Z,13.19
2022-10-12T11:14:56.922Z,13.09
2022-10-12T11:19:02.296Z,13.37
2022-10-12T11:23:16.131Z,13.41
2022-10-12T11:27:25.829Z,13.54
2022-10-12T11:31:39.852Z,13.54
2022-10-12T11:35:44.982Z,13.59
2022-10-12T11:39:51.785Z,13.33
2022-10-12T11:44:04.016Z,13.17
2022-10-12T11:48:12.243Z,13.35
2022-10-12T11:52:15.460Z,13.49
2022-10-12T11:56:37.331Z,13.86
2022-10-12T12:01:16.625Z,13.96
2022-10-12T12:05:18.641Z,13.58
2022-10-12T12:09:39.774Z,13.81
2022-10-12T12:13:41.884Z,14.38
2022-10-12T12:18:04.413Z,14.68
2022-10-12T12:22:32.107Z,14.84
2022-10-12T12:26:33.952Z,14.66
2022-10-12T12:30:39.407Z,15.02
2022-10-12T12:34:51.371Z,14.66
2022-10-12T12:38:53.667Z,14.60
2022-10-12T12:43:34.476Z,14.53
2022-10-12T12:47:46.454Z,14.29
2022-10-12T12:51:52.457Z,13.91
2022-10-12T12:56:00.401Z,13.76
2022-10-12T13:00:12.530Z,13.71
2022-10-12T13:04:35.664Z,13.95
2022-10-12T13:08:59.023Z,14.24
2022-10-12T13:13:24.243Z,14.25
2022-10-12T13:17:39.727Z,14.32
2022-10-12T13:21:45.743Z,14.38
2022-10-12T13:25:57.107Z,14.31
2022-10-12T13:30:11.772Z,14.29
2022-10-12T13:34:24.794Z,14.23
2022-10-12T13:38:29.203Z,14.15
2022-10-12T13:42:35.831Z,14.28
2022-10-12T13:46:54.882Z,14.26
2022-10-12T13:51:02.372Z,14.18
2022-10-12T13:55:15.663Z,14.14
2022-10-12T13:59:22.174Z,14.16
2022-10-12T14:03:26.630Z,14.37
2022-10-12T14:07:34.804Z,14.33
2022-10-12T14:11:37.867Z,14.26
2022-10-12T14:15:40.956Z,14.30
2022-10-12T14:19:54.281Z,14.54
2022-10-12T14:23:58.947Z,14.21
2022-10-12T14:28:03.770Z,14.03
2022-10-12T14:32:27.041Z,13.95
2022-10-12T14:36:29.270Z,13.89
2022-10-12T14:40:41.994Z,13.84
2022-10-12T14:44:44.102Z,13.63
2022-10-12T14:48:45.935Z,13.53
2022-10-12T14:52:55.056Z,13.33
2022-10-12T14:57:09.385Z,13.28
2022-10-12T15:01:11.466Z,13.18
2022-10-12T15:05:15.125Z,13.09
2022-10-12T15:09:17.050Z,12.97
2022-10-12T15:13:18.802Z,12.89
2022-10-12T15:17:21.277Z,12.86
2022-10-12T15:21:23.034Z,12.90
2022-10-12T15:25:29.442Z,12.82
2022-10-12T15:29:31.164Z,12.62
2022-10-12T15:33:33.129Z,12.49
2022-10-12T15:37:34.883Z,12.36
2022-10-12T15:41:36.881Z,12.10
2022-10-12T15:45:40.040Z,12.01
2022-10-12T15:49:42.249Z,11.88
2022-10-12T15:53:44.994Z,11.75
2022-10-12T15:57:47.870Z,11.50
2022-10-12T16:01:49.801Z,11.30
2022-10-12T16:05:51.679Z,11.19
2022-10-12T16:09:53.352Z,10.94
2022-10-12T16:13:56.854Z,10.91
2022-10-12T16:18:00.123Z,10.78
2022-10-12T16:22:03.206Z,10.60
2022-10-12T16:26:07.958Z,10.54
2022-10-12T16:30:11.275Z,10.40
2022-10-12T16:34:12.917Z,10.35
2022-10-12T16:38:15.224Z,10.21
2022-10-12T16:42:16.997Z,10.05
2022-10-12T16:46:19.093Z,9.99
2022-10-12T16:50:23.086Z,9.93
2022-10-12T16:54:25.723Z,9.89
2022-10-12T16:58:27.419Z,9.85
2022-10-12T17:02:29.298Z,9.79
2022-10-12T17:06:31.211Z,9.72
2022-10-12T17:10:33.051Z,9.58
2022-10-12T17:14:34.962Z,9.46
2022-10-12T17:18:36.842Z,9.43
2022-10-12T17:22:38.870Z,9.43
2022-10-12T17:26:41.316Z,9.42
2022-10-12T17:30:43.012Z,9.38
2022-10-12T17:34:45.059Z,9.27
2022-10-12T17:38:49.720Z,9.18
2022-10-12T17:42:51.586Z,9.15
2022-10-12T17:46:53.246Z,9.08
2022-10-12T17:51:10.010Z,9.03
2022-10-12T17:55:29.504Z,9.02
2022-10-12T17:59:33.520Z,8.98
2022-10-12T18:03:36.015Z,9.01
2022-10-12T18:07:38.508Z,9.00
2022-10-12T18:11:40.635Z,8.95
2022-10-12T18:15:43.598Z,8.81
2022-10-12T18:19:47.133Z,8.75
2022-10-12T18:23:49.695Z,8.71
2022-10-12T18:27:52.313Z,8.67
2022-10-12T18:31:54.854Z,8.60
2022-10-12T18:36:05.502Z,8.70
2022-10-12T18:40:08.065Z,8.65
2022-10-12T18:44:11.064Z,8.56
2022-10-12T18:48:13.509Z,8.56
2022-10-12T18:52:15.816Z,8.50
2022-10-12T18:56:19.361Z,8.50
2022-10-12T19:00:21.061Z,8.46
2022-10-12T19:04:22.942Z,8.39
2022-10-12T19:08:24.620Z,8.46
2022-10-12T19:12:26.460Z,8.42
2022-10-12T19:16:29.357Z,8.41
2022-10-12T19:20:36.670Z,8.47
2022-10-12T19:24:38.418Z,8.39
2022-10-12T19:28:40.683Z,8.42
2022-10-12T19:32:42.948Z,8.39
2022-10-12T19:36:45.228Z,8.43
2022-10-12T19:40:47.016Z,8.41
2022-10-12T19:44:48.877Z,8.49
2022-10-12T19:48:52.308Z,8.62
2022-10-12T19:52:54.286Z,8.56
2022-10-12T19:56:56.025Z,8.44
2022-10-12T20:01:05.888Z,8.42
2022-10-12T20:05:07.814Z,8.48
2022-10-12T20:09:09.873Z,8.40
2022-10-12T20:13:12.245Z,8.23
2022-10-12T20:17:14.198Z,8.14
2022-10-12T20:21:19.216Z,7.99
2022-10-12T20:25:21.230Z,7.72
2022-10-12T20:29:23.074Z,7.67
2022-10-12T20:33:24.939Z,7.64
2022-10-12T20:37:26.910Z,7.31
2022-10-12T20:41:28.941Z,7.28
2022-10-12T20:45:30.624Z,7.00
2022-10-12T20:49:32.610Z,6.95
2022-10-12T20:53:34.999Z,6.59
2022-10-12T20:57:36.910Z,6.53
2022-10-12T21:01:38.757Z,6.57
2022-10-12T21:05:40.679Z,6.33
2022-10-12T21:09:42.590Z,6.24
2022-10-12T21:13:46.088Z,6.08
2022-10-12T21:17:47.879Z,6.02
2022-10-12T21:21:49.687Z,5.95
2022-10-12T21:25:52.116Z,5.89
2022-10-12T21:29:53.954Z,5.77
2022-10-12T21:33:55.820Z,5.62
2022-10-12T21:37:57.662Z,5.66
2022-10-12T21:41:59.624Z,5.58
2022-10-12T21:46:05.055Z,5.47
2022-10-12T21:50:09.323Z,5.29
2022-10-12T21:54:11.284Z,5.21
2022-10-12T21:58:13.205Z,5.14
2022-10-12T22:02:15.269Z,5.09
2022-10-12T22:06:19.967Z,4.99
2022-10-12T22:10:23.810Z,4.96
2022-10-12T22:14:25.514Z,4.80
2022-10-12T22:18:27.563Z,4.78
2022-10-12T22:22:29.234Z,4.77
2022-10-12T22:26:31.914Z,4.62
2022-10-12T22:30:39.349Z,4.62
2022-10-12T22:34:41.168Z,4.49
2022-10-12T22:38:43.288Z,4.35
2022-10-12T22:42:46.000Z,4.30
2022-10-12T22:46:47.724Z,4.29
2022-10-12T22:50:50.695Z,4.20
2022-10-12T22:54:52.417Z,4.16
2022-10-12T22:58:56.543Z,4.14
2022-10-12T23:02:58.399Z,4.01
2022-10-12T23:07:00.207Z,3.93
2022-10-12T23:11:04.929Z,3.86
2022-10-12T23:15:08.025Z,3.87
2022-10-12T23:19:10.375Z,3.88
2022-10-12T23:23:12.194Z,3.77
2022-10-12T23:27:14.511Z,3.75
2022-10-12T23:31:22.043Z,3.72
2022-10-12T23:35:25.470Z,3.67
2022-10-12T23:39:28.929Z,3.73
2022-10-12T23:43:31.028Z,3.66
2022-10-12T23:47:36.308Z,3.54
2022-10-12T23:51:38.083Z,3.61
2022-10-12T23:55:40.580Z,3.49
2022-10-12T23:59:42.257Z,3.56
